Capitol Logistics 994


FMMI
Ivato International Airport
Antananarivo, MG
FMEE
Roland Garros
St. Denis, FR

Activity Log

Date Flight Route Aircraft Duration
12/20/2019 CPX994 TIGUR A401 UNKIK UNKIK1R B763 1h 28m
11/17/2019 CPX994 Not Available B763 1h 23m

Route Details

Aircraft Information
Primary: Boeing 767-300BDSF
Backup: Not Available
Route Data
Distance: 471nm
Sched. Duration: 1h 25m
Avg. Duration: 1h 25m (+0m)
Times Flown: 2
Recm'd Route: Not Available
Planned Altitude: 33,000ft
Origin Wx: FMMI 271000Z 07004KT 010V160 9999 BKN023 26/18 Q1018 NOSIG
Dest. Wx: FMEE 271000Z AUTO 08013KT 9999 FEW060/// ///CB 29/24 Q1010 TEMPO 12015G25KT 1000 TSRA OVC010CB
Notes:

Financial History
Total Freight: 154,820lbs
Average Load: 77,410lbs/flt
Fuel Used: 26,647lbs
Avg. Fuel Used: 13,324lbs/flt
Fuel Expense: $21,318
Avg. Fuel Expense: $10,659
Avg. Fuel Cost: $0.80/lbs
Total Gross Income: $1,520,332
Pilot Pay: $468
Total Expenses: $164,300
Total Revenue: $1,334,128
Average Revenue: $760,166.22